ES-0111 weather

Aeródromo Villanueva del Pardillo
Villanueva del Pardillo, Madrid, Spain

Public forecast

Using degrees Celsius for public forecast. Weather courtesy of forecast.io.

Closest aviation weather report (METAR) to Aeródromo Villanueva del Pardillo

Closest report is Getafe Air Base, 17.4 nm (32.3 km) SE. Retrieved 2019/10/17 17:00 UTC (2 minutes ago):

LEGT 171700Z 26007KT 230V290 9999 OVC020 17/14 Q1019

Closest aviation forecast (TAF) to Aeródromo Villanueva del Pardillo

Forecast is more than 12 hours old.

Closest forecast is Getafe Air Base, 17.4 nm (32.3 km) SE. Retrieved 2018/03/28 12:33 UTC (2 years ago):

TAF LEGT 281100Z 2812/2824 24010KT CAVOK PROB40 TEMPO 2814/2818 27015G25KT TEMPO 2820/2824 28008KT